createdAt,value
2019-01-04T00:04:03.932Z,70.66
2019-01-04T00:06:30.201Z,71.20
2019-01-04T00:08:56.450Z,70.97
2019-01-04T00:11:22.626Z,70.53
2019-01-04T00:13:48.789Z,71.26
2019-01-04T00:16:14.936Z,71.34
2019-01-04T00:18:41.161Z,70.40
2019-01-04T00:21:07.277Z,71.40
2019-01-04T00:23:33.430Z,72.17
2019-01-04T00:25:59.735Z,71.65
2019-01-04T00:28:25.893Z,71.38
2019-01-04T00:30:52.044Z,70.70
2019-01-04T00:33:18.247Z,70.99
2019-01-04T00:35:44.403Z,71.43
2019-01-04T00:38:10.558Z,71.57
2019-01-04T00:40:36.740Z,71.00
2019-01-04T00:43:15.955Z,70.94
2019-01-04T00:45:42.255Z,71.04
2019-01-04T00:48:08.509Z,71.42
2019-01-04T00:50:34.671Z,71.45
2019-01-04T00:53:00.862Z,70.74
2019-01-04T00:59:20.129Z,69.98
2019-01-04T01:02:25.797Z,69.74
2019-01-04T01:05:31.688Z,69.50
2019-01-04T01:08:37.354Z,69.17
2019-01-04T01:11:43.036Z,68.92
2019-01-04T01:14:48.702Z,68.35
2019-01-04T01:17:54.391Z,68.46
2019-01-04T01:21:00.040Z,68.93
2019-01-04T01:24:07.641Z,68.99
2019-01-04T01:27:13.301Z,69.41
2019-01-04T01:30:18.994Z,70.25
2019-01-04T01:39:38.960Z,69.59
2019-01-04T01:42:44.621Z,68.86
2019-01-04T01:45:50.315Z,68.68
2019-01-04T01:48:36.323Z,69.20
2019-01-04T01:51:42.019Z,67.97
2019-01-04T01:54:27.920Z,66.60
2019-01-04T01:56:54.136Z,66.16
2019-01-04T01:59:40.152Z,64.97
2019-01-04T02:02:26.184Z,64.73
2019-01-04T02:04:52.342Z,65.56
2019-01-04T02:07:38.281Z,66.30
2019-01-04T02:13:25.352Z,68.36
2019-01-04T02:15:51.518Z,69.61
2019-01-04T02:18:37.565Z,72.07
2019-01-04T02:21:23.478Z,71.72
2019-01-04T02:24:09.408Z,71.21
2019-01-04T02:26:55.315Z,71.68
2019-01-04T02:29:41.272Z,72.23
2019-01-04T02:32:07.433Z,71.93
2019-01-04T02:34:53.376Z,70.87
2019-01-04T02:37:19.540Z,70.92
2019-01-04T02:40:05.479Z,70.51
2019-01-04T02:42:51.383Z,69.74
2019-01-04T02:45:37.489Z,68.98
2019-01-04T02:48:03.684Z,69.26
2019-01-04T02:50:49.618Z,69.54
2019-01-04T02:53:35.627Z,69.62
2019-01-04T02:56:21.568Z,69.95
2019-01-04T02:59:07.714Z,70.38
2019-01-04T03:01:33.907Z,70.33
2019-01-04T03:04:00.109Z,69.89
2019-01-04T03:06:46.169Z,69.54
2019-01-04T03:09:32.070Z,69.62
2019-01-04T03:12:18.015Z,70.02
2019-01-04T03:15:04.037Z,69.38
2019-01-04T03:17:50.084Z,68.71
2019-01-04T03:20:35.993Z,67.57
2019-01-04T03:23:22.033Z,67.03
2019-01-04T03:26:07.945Z,67.05
2019-01-04T03:28:53.895Z,65.61
2019-01-04T03:31:39.802Z,65.38
2019-01-04T03:34:25.759Z,64.49
2019-01-04T03:36:51.915Z,63.92
2019-01-04T03:39:37.960Z,64.35
2019-01-04T03:42:23.877Z,64.58
2019-01-04T03:44:50.068Z,63.99
2019-01-04T03:47:29.062Z,64.29
2019-01-04T03:50:15.019Z,65.32
2019-01-04T03:55:33.658Z,65.53
2019-01-04T03:58:19.663Z,63.73
2019-01-04T04:01:05.741Z,63.34
2019-01-04T04:03:51.657Z,63.24
2019-01-04T04:06:37.601Z,62.84
2019-01-04T04:15:16.585Z,61.74
2019-01-04T04:18:02.588Z,61.49
2019-01-04T04:20:48.530Z,61.42
2019-01-04T04:23:34.443Z,60.95
2019-01-04T04:26:00.628Z,60.66
2019-01-04T04:28:46.665Z,60.58
2019-01-04T04:31:32.711Z,61.44
2019-01-04T04:36:50.971Z,61.50
2019-01-04T04:39:36.975Z,60.93
2019-01-04T04:42:23.019Z,60.63
2019-01-04T04:47:41.290Z,60.63
2019-01-04T04:50:07.441Z,61.62
2019-01-04T04:52:53.492Z,60.89
2019-01-04T04:55:39.504Z,61.77
2019-01-04T04:58:25.554Z,63.11
2019-01-04T05:00:51.810Z,64.17
2019-01-04T05:03:37.845Z,63.46
2019-01-04T05:06:23.881Z,58.24
2019-01-04T05:09:09.934Z,58.94
2019-01-04T05:11:55.833Z,59.91
2019-01-04T05:14:41.777Z,61.54
2019-01-04T05:22:51.714Z,57.15
2019-01-04T05:25:17.877Z,55.21
2019-01-04T05:28:03.962Z,57.82
2019-01-04T05:30:30.118Z,57.17
2019-01-04T05:33:16.057Z,55.26
2019-01-04T05:35:42.213Z,54.96
2019-01-04T05:38:28.167Z,56.28
2019-01-04T05:41:14.094Z,59.22
2019-01-04T05:43:40.285Z,63.46
2019-01-04T05:46:26.207Z,62.55
2019-01-04T05:49:12.258Z,63.09
2019-01-04T05:54:49.936Z,64.03
2019-01-04T05:57:36.122Z,64.63
2019-01-04T06:03:23.195Z,64.20
2019-01-04T06:06:09.188Z,63.98
2019-01-04T06:08:55.117Z,63.64
2019-01-04T06:11:41.149Z,62.92
2019-01-04T06:14:27.198Z,63.71
2019-01-04T06:17:13.108Z,63.09
2019-01-04T06:19:59.162Z,63.46
2019-01-04T06:22:45.092Z,64.11
2019-01-04T06:25:31.138Z,62.25
2019-01-04T06:28:17.922Z,62.32
2019-01-04T06:31:03.866Z,61.80
2019-01-04T06:33:49.778Z,61.42
2019-01-04T06:36:35.866Z,60.73
2019-01-04T06:39:21.791Z,60.15
2019-01-04T06:42:07.862Z,59.64
2019-01-04T06:47:26.841Z,58.47
2019-01-04T06:50:12.809Z,58.82
2019-01-04T06:52:58.760Z,58.32
2019-01-04T06:55:45.667Z,57.45
2019-01-04T06:58:31.650Z,58.03
2019-01-04T07:01:17.653Z,56.85
2019-01-04T07:04:03.593Z,57.87
2019-01-04T07:06:49.604Z,55.92
2019-01-04T07:09:35.533Z,54.32
2019-01-04T07:12:21.470Z,53.94
2019-01-04T07:15:07.512Z,54.07
2019-01-04T07:17:53.425Z,55.05
2019-01-04T07:20:39.466Z,56.61
2019-01-04T07:23:25.376Z,56.84
2019-01-04T07:26:11.429Z,56.94
2019-01-04T07:28:57.331Z,56.27
2019-01-04T07:31:43.378Z,56.72
2019-01-04T07:34:29.288Z,56.17
2019-01-04T07:37:15.226Z,55.62
2019-01-04T07:39:41.395Z,54.74
2019-01-04T07:42:07.550Z,54.69
2019-01-04T07:44:53.594Z,55.83
2019-01-04T07:47:19.762Z,53.61
2019-01-04T07:49:45.912Z,53.31
2019-01-04T07:52:12.179Z,52.88
2019-01-04T07:54:38.437Z,53.14
2019-01-04T07:57:04.606Z,52.15
2019-01-04T07:59:30.802Z,51.97
2019-01-04T08:01:56.951Z,52.74
2019-01-04T08:04:23.108Z,51.83
2019-01-04T08:06:49.408Z,51.00
2019-01-04T08:09:15.566Z,49.88
2019-01-04T08:11:41.719Z,49.59
2019-01-04T08:14:07.913Z,49.15
2019-01-04T08:16:34.076Z,47.90
2019-01-04T08:19:00.238Z,47.37
2019-01-04T08:21:26.427Z,47.93
2019-01-04T08:23:52.577Z,48.14
2019-01-04T08:26:18.836Z,47.93
2019-01-04T08:28:45.025Z,47.20
2019-01-04T08:31:11.183Z,46.67
2019-01-04T08:33:37.335Z,46.10
2019-01-04T08:36:03.522Z,46.67
2019-01-04T08:38:29.687Z,46.53
2019-01-04T08:40:55.840Z,47.00
2019-01-04T08:43:22.128Z,49.76
2019-01-04T08:45:48.398Z,49.34
2019-01-04T08:48:14.564Z,50.06
2019-01-04T08:50:40.766Z,50.06
2019-01-04T08:53:06.928Z,48.15
2019-01-04T08:55:33.196Z,45.79
2019-01-04T08:57:59.391Z,45.91
2019-01-04T09:00:25.543Z,45.07
2019-01-04T09:02:52.610Z,45.28
2019-01-04T09:05:39.657Z,43.83
2019-01-04T09:08:25.563Z,44.10
2019-01-04T09:11:11.510Z,44.45
2019-01-04T09:16:30.098Z,42.93
2019-01-04T09:18:56.349Z,41.69
2019-01-04T09:21:22.502Z,41.34
2019-01-04T09:23:48.683Z,39.93
2019-01-04T09:26:14.851Z,40.17
2019-01-04T09:28:41.017Z,39.82
2019-01-04T09:31:07.199Z,40.33
2019-01-04T09:33:33.347Z,41.57
2019-01-04T09:35:59.500Z,42.81
2019-01-04T09:38:25.796Z,45.80
2019-01-04T09:41:33.361Z,42.87
2019-01-04T09:44:40.992Z,45.57
2019-01-04T09:47:07.161Z,45.57
2019-01-04T09:49:33.312Z,40.78
2019-01-04T09:51:59.607Z,41.01
2019-01-04T09:54:25.992Z,41.38
2019-01-04T09:56:52.153Z,42.58
2019-01-04T09:59:18.371Z,42.27
2019-01-04T10:01:44.523Z,39.41
2019-01-04T10:04:10.785Z,40.22
2019-01-04T10:06:36.975Z,39.07
2019-01-04T10:12:16.540Z,39.41
2019-01-04T10:14:42.694Z,38.96
2019-01-04T10:17:08.884Z,39.80
2019-01-04T10:19:35.080Z,40.32
2019-01-04T10:22:01.351Z,41.21
2019-01-04T10:24:27.521Z,42.51
2019-01-04T10:26:53.714Z,42.22
2019-01-04T10:29:19.885Z,39.90
2019-01-04T10:31:46.044Z,38.94
2019-01-04T10:34:12.237Z,42.13
2019-01-04T10:36:38.414Z,41.36
2019-01-04T10:39:46.033Z,41.64
2019-01-04T10:42:12.190Z,40.96
2019-01-04T10:44:38.355Z,44.00
2019-01-04T10:47:05.059Z,40.60
2019-01-04T10:49:31.215Z,40.53
2019-01-04T10:51:57.369Z,40.51
2019-01-04T10:54:23.552Z,41.62
2019-01-04T10:56:49.712Z,38.42
2019-01-04T10:59:15.975Z,36.42
2019-01-04T11:01:42.159Z,37.39
2019-01-04T11:04:08.323Z,40.56
2019-01-04T11:06:34.590Z,44.47
2019-01-04T11:09:00.796Z,44.11
2019-01-04T11:11:27.106Z,47.83
2019-01-04T11:13:53.257Z,49.92
2019-01-04T11:16:19.444Z,52.28
2019-01-04T11:18:45.658Z,54.43
2019-01-04T11:21:11.815Z,52.88
2019-01-04T11:24:17.639Z,52.56
2019-01-04T11:27:03.558Z,51.59
2019-01-04T11:30:11.197Z,53.12
2019-01-04T11:32:57.907Z,52.62
2019-01-04T11:36:05.513Z,53.52
2019-01-04T11:42:24.705Z,51.73
2019-01-04T11:45:30.495Z,52.24
2019-01-04T11:48:38.162Z,51.68
2019-01-04T11:51:43.789Z,48.88
2019-01-04T11:54:09.970Z,49.03
2019-01-04T11:56:36.130Z,50.10
2019-01-04T11:59:02.351Z,49.20
2019-01-04T12:01:28.640Z,49.76
2019-01-04T12:09:47.851Z,50.34
2019-01-04T12:12:14.134Z,50.56
2019-01-04T12:14:41.502Z,50.07
2019-01-04T12:17:08.492Z,51.25
2019-01-04T12:19:34.650Z,51.20
2019-01-04T12:22:42.270Z,49.46
2019-01-04T12:25:08.457Z,47.85
2019-01-04T12:28:05.137Z,50.10
2019-01-04T12:30:44.332Z,45.65
2019-01-04T12:33:10.495Z,45.47
2019-01-04T12:35:36.659Z,46.53
2019-01-04T12:38:03.100Z,47.71
2019-01-04T12:40:29.246Z,50.75
2019-01-04T12:42:55.405Z,48.38
2019-01-04T12:45:21.596Z,48.26
2019-01-04T12:47:47.882Z,46.20
2019-01-04T12:50:14.027Z,47.33
2019-01-04T12:52:40.209Z,48.49
2019-01-04T12:55:06.371Z,46.86
2019-01-04T12:57:32.645Z,48.10
2019-01-04T13:00:12.537Z,47.44
2019-01-04T13:02:38.701Z,49.62
2019-01-04T13:05:04.972Z,47.43
2019-01-04T13:07:31.168Z,50.13
2019-01-04T13:09:57.426Z,49.28
2019-01-04T13:12:23.689Z,49.07
2019-01-04T13:14:49.899Z,47.88
2019-01-04T13:17:16.104Z,49.06
2019-01-04T13:19:42.607Z,47.68
2019-01-04T13:22:08.932Z,49.07
2019-01-04T13:24:42.381Z,50.58
2019-01-04T13:27:08.537Z,55.01
2019-01-04T13:29:34.913Z,58.23
2019-01-04T13:32:01.078Z,57.69
2019-01-04T13:34:27.379Z,57.43
2019-01-04T13:36:53.567Z,57.10
2019-01-04T13:39:19.730Z,59.09
2019-01-04T13:41:46.020Z,58.89
2019-01-04T13:44:14.732Z,59.12
2019-01-04T13:46:40.886Z,59.59
2019-01-04T13:49:07.043Z,59.99
2019-01-04T13:51:33.334Z,61.72
2019-01-04T13:53:59.564Z,61.96
2019-01-04T13:56:25.756Z,63.73
2019-01-04T13:58:51.944Z,65.55
2019-01-04T14:01:31.344Z,66.86
2019-01-04T14:03:57.633Z,66.17
2019-01-04T14:06:23.902Z,65.64
2019-01-04T14:08:50.078Z,66.69
2019-01-04T14:11:16.268Z,66.72
2019-01-04T14:13:42.434Z,66.29
2019-01-04T14:16:08.695Z,67.41
2019-01-04T14:18:34.877Z,67.34
2019-01-04T14:21:01.099Z,67.96
2019-01-04T14:23:28.950Z,67.84
2019-01-04T14:25:55.450Z,67.36
2019-01-04T14:28:22.013Z,66.96
2019-01-04T14:33:35.971Z,66.11
2019-01-04T14:36:02.369Z,66.12
2019-01-04T14:38:28.527Z,66.25
2019-01-04T14:40:54.831Z,66.56
2019-01-04T14:43:21.092Z,66.69
2019-01-04T14:45:47.251Z,66.47
2019-01-04T14:48:13.456Z,66.73
2019-01-04T14:50:39.713Z,66.07
2019-01-04T14:53:06.939Z,65.23
2019-01-04T14:55:33.988Z,64.93
2019-01-04T14:58:00.144Z,64.96
2019-01-04T15:00:26.470Z,65.58
2019-01-04T15:02:52.770Z,64.51
2019-01-04T15:05:18.922Z,64.86
2019-01-04T15:10:37.497Z,65.27
2019-01-04T15:13:03.647Z,64.32
2019-01-04T15:15:29.809Z,65.10
2019-01-04T15:17:55.987Z,64.45
2019-01-04T15:20:22.246Z,64.61
2019-01-04T15:22:48.404Z,63.76
2019-01-04T15:25:14.594Z,64.11
2019-01-04T15:27:40.981Z,64.01
2019-01-04T15:30:48.556Z,63.84
2019-01-04T15:33:14.715Z,64.41
2019-01-04T15:35:40.870Z,64.40
2019-01-04T15:38:07.059Z,64.67
2019-01-04T15:40:33.241Z,64.70
2019-01-04T15:42:59.505Z,64.63
2019-01-04T15:48:19.793Z,63.90
2019-01-04T15:50:46.059Z,63.59
2019-01-04T15:53:12.362Z,62.40
2019-01-04T15:55:38.560Z,62.22
2019-01-04T15:58:04.840Z,61.81
2019-01-04T16:00:30.991Z,61.47
2019-01-04T16:02:57.336Z,61.41
2019-01-04T16:05:23.578Z,62.68
2019-01-04T16:07:49.742Z,61.27
2019-01-04T16:10:16.045Z,61.83
2019-01-04T16:12:42.303Z,61.35
2019-01-04T16:15:49.896Z,60.89
2019-01-04T16:18:16.150Z,61.82
2019-01-04T16:20:42.310Z,61.32
2019-01-04T16:23:08.505Z,62.46
2019-01-04T16:25:34.671Z,62.17
2019-01-04T16:28:00.964Z,62.35
2019-01-04T16:30:27.163Z,62.90
2019-01-04T16:32:53.420Z,62.58
2019-01-04T16:35:19.589Z,62.94
2019-01-04T16:37:45.781Z,63.76
2019-01-04T16:40:12.042Z,64.04
2019-01-04T16:42:38.204Z,63.95
2019-01-04T16:45:45.831Z,63.80
2019-01-04T16:48:11.992Z,63.20
2019-01-04T16:51:19.697Z,62.73
2019-01-04T16:53:45.851Z,62.73
2019-01-04T16:56:12.010Z,62.11
2019-01-04T16:58:38.202Z,62.07
2019-01-04T17:01:04.457Z,60.14
2019-01-04T17:03:30.665Z,59.82
2019-01-04T17:05:56.884Z,58.92
2019-01-04T17:08:23.145Z,59.80
2019-01-04T17:10:49.299Z,58.87
2019-01-04T17:13:15.484Z,59.33
2019-01-04T17:15:41.758Z,60.42
2019-01-04T17:18:07.911Z,60.49
2019-01-04T17:20:34.152Z,60.22
2019-01-04T17:23:00.314Z,60.62
2019-01-04T17:25:26.567Z,60.02
2019-01-04T17:27:52.882Z,59.16
2019-01-04T17:30:19.037Z,59.94
2019-01-04T17:32:45.187Z,59.00
2019-01-04T17:35:11.381Z,57.54
2019-01-04T17:37:37.551Z,58.31
2019-01-04T17:40:45.152Z,57.45
2019-01-04T17:43:11.322Z,56.58
2019-01-04T17:45:37.471Z,56.79
2019-01-04T17:48:03.669Z,56.65
2019-01-04T17:50:29.837Z,56.71
2019-01-04T17:52:55.982Z,55.85
2019-01-04T17:55:22.288Z,54.48
2019-01-04T17:57:48.452Z,56.14
2019-01-04T18:00:14.814Z,54.39
2019-01-04T18:02:40.988Z,54.97
2019-01-04T18:05:07.194Z,53.91
2019-01-04T18:07:33.383Z,53.89
2019-01-04T18:13:20.010Z,52.94
2019-01-04T18:15:46.161Z,54.11
2019-01-04T18:18:12.422Z,53.26
2019-01-04T18:20:38.835Z,53.66
2019-01-04T18:23:04.961Z,53.65
2019-01-04T18:25:31.111Z,51.99
2019-01-04T18:27:57.429Z,54.17
2019-01-04T18:30:23.631Z,51.95
2019-01-04T18:32:49.818Z,52.15
2019-01-04T18:35:15.974Z,51.65
2019-01-04T18:37:42.258Z,54.48
2019-01-04T18:41:03.640Z,51.84
2019-01-04T18:43:17.935Z,51.91
2019-01-04T18:46:11.589Z,52.68
2019-01-04T18:51:51.693Z,53.79
2019-01-04T18:54:37.844Z,52.61
2019-01-04T18:57:13.230Z,52.18
2019-01-04T18:59:59.149Z,51.80
2019-01-04T19:02:45.231Z,52.14
2019-01-04T19:05:25.730Z,51.60
2019-01-04T19:07:51.965Z,52.44
2019-01-04T19:10:18.273Z,53.29
2019-01-04T19:15:32.266Z,56.02
2019-01-04T19:17:58.412Z,57.29
2019-01-04T19:20:24.571Z,58.07
2019-01-04T19:22:50.756Z,58.60
2019-01-04T19:25:16.933Z,59.28
2019-01-04T19:27:43.087Z,61.54
2019-01-04T19:30:09.275Z,60.32
2019-01-04T19:32:35.527Z,59.90
2019-01-04T19:35:01.690Z,59.50
2019-01-04T19:37:27.886Z,59.11
2019-01-04T19:39:54.047Z,59.47
2019-01-04T19:42:29.502Z,59.89
2019-01-04T19:44:55.748Z,60.44
2019-01-04T19:50:29.505Z,61.17
2019-01-04T19:52:55.747Z,61.22
2019-01-04T19:55:21.956Z,61.35
2019-01-04T19:57:48.162Z,61.72
2019-01-04T20:00:14.412Z,61.45
2019-01-04T20:02:40.570Z,60.56
2019-01-04T20:05:06.864Z,59.75
2019-01-04T20:14:16.307Z,60.48
2019-01-04T20:25:43.633Z,63.25
2019-01-04T20:28:25.516Z,63.38
2019-01-04T20:33:45.510Z,64.70
2019-01-04T20:36:31.534Z,65.09
2019-01-04T20:39:17.581Z,65.30
2019-01-04T20:42:03.598Z,65.31
2019-01-04T20:44:49.645Z,64.96
2019-01-04T20:47:35.661Z,63.98
2019-01-04T20:52:59.304Z,63.09
2019-01-04T20:55:45.311Z,63.98
2019-01-04T20:58:31.369Z,64.12
2019-01-04T21:01:17.405Z,63.87
2019-01-04T21:04:03.570Z,63.01
2019-01-04T21:06:49.710Z,65.30
2019-01-04T21:14:48.927Z,65.12
2019-01-04T21:17:34.936Z,65.44
2019-01-04T21:20:21.010Z,64.44
2019-01-04T21:25:54.654Z,64.60
2019-01-04T21:28:40.662Z,63.27
2019-01-04T21:31:27.668Z,63.50
2019-01-04T21:34:13.682Z,63.38
2019-01-04T21:36:59.730Z,65.43
2019-01-04T21:39:45.744Z,66.64
2019-01-04T21:45:05.938Z,67.97
2019-01-04T21:47:51.952Z,67.46
2019-01-04T21:50:38.003Z,69.36
2019-01-04T21:53:24.023Z,67.29
2019-01-04T21:59:05.456Z,65.26
2019-01-04T22:04:39.089Z,65.96
2019-01-04T22:07:25.100Z,63.86
2019-01-04T22:10:11.261Z,63.77
2019-01-04T22:12:57.283Z,66.01
2019-01-04T22:15:43.337Z,64.65
2019-01-04T22:18:29.344Z,65.22
2019-01-04T22:21:15.412Z,64.84
2019-01-04T22:24:01.422Z,64.99
2019-01-04T22:26:47.470Z,64.96
2019-01-04T22:29:33.502Z,65.81
2019-01-04T22:32:19.553Z,65.44
2019-01-04T22:35:05.591Z,65.63
2019-01-04T22:40:25.918Z,66.55
2019-01-04T22:43:11.928Z,65.56
2019-01-04T22:45:57.972Z,65.72
2019-01-04T22:48:43.990Z,65.97
2019-01-04T22:56:43.786Z,66.15
2019-01-04T22:59:29.794Z,66.54
2019-01-04T23:02:15.846Z,66.87
2019-01-04T23:05:01.859Z,67.24
2019-01-04T23:15:50.692Z,66.63
2019-01-04T23:18:36.702Z,65.21
2019-01-04T23:22:02.248Z,65.09
2019-01-04T23:24:48.262Z,62.97
2019-01-04T23:27:34.301Z,62.12
2019-01-04T23:30:20.321Z,61.98
2019-01-04T23:33:06.370Z,62.24
2019-01-04T23:35:52.377Z,61.77
2019-01-04T23:41:16.060Z,61.58
2019-01-04T23:44:02.068Z,62.46
2019-01-04T23:46:48.108Z,62.48
2019-01-04T23:49:34.113Z,62.18
2019-01-04T23:52:20.166Z,62.73
2019-01-04T23:55:06.183Z,62.93
